Time;durP1;ratioP1;P1;durP2;ratioP2;P2;SDS_P1;SDS_P2;PMS_P1;PMS_P2;Temp;Humidity;BMP_temperature;BMP_pressure;BME280_temperature;BME280_humidity;BME280_pressure;Samples;Min_cycle;Max_cycle;Signal;HPM_P1;HPM_P2
2023/05/01 00:02:14;;;;;;;5.25;4.05;;;13.90;99.90;;;;;;7387867;19;20135;-83
2023/05/01 00:04:40;;;;;;;6.10;4.75;;;14.00;99.90;;;;;;7388896;19;20227;-84
2023/05/01 00:07:06;;;;;;;5.18;4.40;;;14.00;99.90;;;;;;7386651;19;20146;-82
2023/05/01 00:09:32;;;;;;;7.03;4.95;;;14.00;99.90;;;;;;7389340;19;20163;-83
2023/05/01 00:11:57;;;;;;;6.05;4.38;;;14.00;99.90;;;;;;7387598;19;20139;-83
2023/05/01 00:14:23;;;;;;;5.78;4.85;;;14.00;99.90;;;;;;7387706;19;20139;-82
2023/05/01 00:16:49;;;;;;;5.38;4.50;;;13.90;99.90;;;;;;7383365;19;20131;-83
2023/05/01 00:19:18;;;;;;;6.97;4.90;;;13.90;99.90;;;;;;7388219;19;20166;-83
2023/05/01 00:21:47;;;;;;;5.97;4.80;;;13.90;99.90;;;;;;7386759;19;20139;-84
2023/05/01 00:24:15;;;;;;;5.63;4.32;;;13.80;99.90;;;;;;7385919;19;20154;-83
2023/05/01 00:26:41;;;;;;;5.07;4.07;;;13.50;99.90;;;;;;7387380;19;20150;-83
2023/05/01 00:29:07;;;;;;;8.77;4.53;;;13.40;99.90;;;;;;7386049;19;20142;-83
2023/05/01 00:31:32;;;;;;;7.03;5.35;;;13.30;99.90;;;;;;7386883;19;20143;-81
2023/05/01 00:33:58;;;;;;;5.28;4.60;;;13.50;99.90;;;;;;7385984;19;21767;-82
2023/05/01 00:36:24;;;;;;;5.90;4.32;;;13.50;99.90;;;;;;7387857;19;20253;-81
2023/05/01 00:38:50;;;;;;;6.57;5.07;;;13.50;99.90;;;;;;7378787;19;20190;-82
2023/05/01 00:41:16;;;;;;;5.40;4.72;;;13.60;99.90;;;;;;7386235;19;20837;-82
2023/05/01 00:43:42;;;;;;;5.43;4.40;;;13.40;99.90;;;;;;7386219;19;20139;-82
2023/05/01 00:46:08;;;;;;;8.77;5.35;;;13.50;99.90;;;;;;7386713;19;20142;-82
2023/05/01 00:48:34;;;;;;;6.35;4.75;;;13.20;99.90;;;;;;7388418;19;20588;-82
2023/05/01 00:51:03;;;;;;;8.15;5.25;;;13.30;99.90;;;;;;7386377;19;20135;-82
2023/05/01 00:53:32;;;;;;;9.93;5.25;;;13.10;99.90;;;;;;7388358;19;20592;-81
2023/05/01 00:55:58;;;;;;;5.97;4.95;;;13.20;99.90;;;;;;7388073;19;20244;-81
2023/05/01 00:58:23;;;;;;;5.65;4.60;;;13.20;99.90;;;;;;7388547;19;20134;-82
2023/05/01 01:00:50;;;;;;;7.60;4.18;;;13.30;99.90;;;;;;7389345;19;20133;-77
2023/05/01 01:03:16;;;;;;;5.53;4.45;;;13.40;99.90;;;;;;7384673;19;20150;-78
2023/05/01 01:05:52;;;;;;;9.95;4.32;;;13.50;99.90;;;;;;7386460;19;20246;-78
2023/05/01 01:08:33;;;;;;;7.60;4.28;;;13.50;99.90;;;;;;7384375;19;20134;-78
2023/05/01 01:11:16;;;;;;;5.97;4.07;;;13.40;99.90;;;;;;7384682;19;20160;-77
2023/05/01 01:13:50;;;;;;;4.93;4.07;;;13.30;99.90;;;;;;7385601;19;20217;-76
2023/05/01 01:16:26;;;;;;;4.30;3.90;;;13.20;99.90;;;;;;7384186;19;20138;-77
2023/05/01 01:19:00;;;;;;;5.20;3.80;;;13.30;99.90;;;;;;7384132;19;20157;-77
2023/05/01 01:21:41;;;;;;;5.28;3.70;;;13.30;99.90;;;;;;7386834;19;20173;-77
2023/05/01 01:24:28;;;;;;;4.13;3.72;;;13.10;99.90;;;;;;7383369;19;20142;-78
2023/05/01 01:27:13;;;;;;;5.95;3.45;;;12.90;99.90;;;;;;7384642;19;20218;-77
2023/05/01 01:30:06;;;;;;;5.32;4.25;;;13.00;99.90;;;;;;7384232;19;20147;-77
2023/05/01 01:32:38;;;;;;;5.40;4.22;;;13.20;99.90;;;;;;7385667;19;20155;-77
2023/05/01 01:35:09;;;;;;;6.05;3.88;;;13.40;99.90;;;;;;7384669;19;20868;-77
2023/05/01 01:38:04;;;;;;;5.25;3.85;;;13.30;99.90;;;;;;7383213;19;20154;-78
2023/05/01 01:40:38;;;;;;;5.63;4.00;;;13.40;99.90;;;;;;7382931;19;20157;-78
2023/05/01 01:43:11;;;;;;;6.13;4.07;;;13.30;99.90;;;;;;7381368;19;20548;-77
2023/05/01 01:45:41;;;;;;;5.60;3.90;;;13.50;99.90;;;;;;7384735;19;20162;-78
2023/05/01 01:48:15;;;;;;;4.85;3.83;;;13.10;99.90;;;;;;7383687;19;20283;-78
2023/05/01 01:50:42;;;;;;;6.18;4.28;;;13.20;99.90;;;;;;7382990;19;20189;-77
2023/05/01 01:53:10;;;;;;;5.85;4.82;;;13.40;99.90;;;;;;7383000;19;20135;-77
2023/05/01 01:55:39;;;;;;;5.43;4.30;;;13.50;99.90;;;;;;7383197;19;20146;-77
2023/05/01 01:58:07;;;;;;;5.28;4.05;;;13.50;99.90;;;;;;7384447;19;20183;-78
2023/05/01 02:00:34;;;;;;;5.75;4.20;;;13.60;99.90;;;;;;7385450;19;20227;-77
2023/05/01 02:03:01;;;;;;;4.60;4.05;;;13.60;99.90;;;;;;7389327;19;20138;-76
2023/05/01 02:05:27;;;;;;;5.32;3.60;;;13.50;99.90;;;;;;7390265;19;20142;-77
2023/05/01 02:07:54;;;;;;;5.22;4.05;;;13.50;99.90;;;;;;7390390;19;20206;-78
2023/05/01 02:10:21;;;;;;;6.15;3.70;;;13.50;99.90;;;;;;7389408;19;20150;-78
2023/05/01 02:12:50;;;;;;;4.20;3.78;;;13.50;99.90;;;;;;7392922;19;20605;-78
2023/05/01 02:15:17;;;;;;;5.07;4.00;;;13.40;99.90;;;;;;7389466;19;20158;-77
2023/05/01 02:17:44;;;;;;;6.53;4.20;;;13.30;99.90;;;;;;7388748;19;20149;-78
2023/05/01 02:20:12;;;;;;;6.82;5.60;;;13.50;99.90;;;;;;7391046;19;20146;-77
2023/05/01 02:22:39;;;;;;;6.97;5.07;;;13.30;99.90;;;;;;7386463;19;20202;-79
2023/05/01 02:25:11;;;;;;;6.65;4.68;;;13.40;99.90;;;;;;7390817;19;20222;-78
2023/05/01 02:27:46;;;;;;;5.60;4.90;;;13.40;99.90;;;;;;7392754;19;20158;-77
2023/05/01 02:30:12;;;;;;;8.90;5.40;;;13.40;99.90;;;;;;7391170;19;20146;-77
2023/05/01 02:32:38;;;;;;;6.65;5.05;;;13.50;99.90;;;;;;7389664;19;20146;-76
2023/05/01 02:35:04;;;;;;;6.15;5.05;;;13.20;99.90;;;;;;7390299;19;20154;-77
2023/05/01 02:37:31;;;;;;;8.90;5.03;;;13.30;99.90;;;;;;7391257;19;20158;-77
2023/05/01 02:39:57;;;;;;;6.18;5.07;;;13.30;99.90;;;;;;7388866;19;20220;-77
2023/05/01 02:42:25;;;;;;;6.40;5.28;;;13.30;99.90;;;;;;7387553;19;20520;-77
2023/05/01 02:44:57;;;;;;;6.32;5.22;;;13.20;99.90;;;;;;7390275;19;20138;-77
2023/05/01 02:47:26;;;;;;;6.35;5.13;;;13.20;99.90;;;;;;7389010;19;20142;-79
2023/05/01 02:49:53;;;;;;;6.87;5.40;;;13.20;99.90;;;;;;7389427;19;20260;-77
2023/05/01 02:52:21;;;;;;;7.25;5.50;;;13.30;99.90;;;;;;7390675;19;20146;-78
2023/05/01 02:54:48;;;;;;;8.60;5.22;;;13.30;99.90;;;;;;7388287;19;20135;-78
2023/05/01 02:57:16;;;;;;;7.07;5.03;;;13.30;99.90;;;;;;7388679;19;20470;-77
2023/05/01 02:59:42;;;;;;;6.07;5.00;;;13.30;99.90;;;;;;7389885;19;20482;-78
2023/05/01 03:02:08;;;;;;;6.82;5.32;;;13.20;99.90;;;;;;7388854;19;20139;-78
2023/05/01 03:04:33;;;;;;;9.52;5.45;;;13.30;99.90;;;;;;7388829;19;20643;-78
2023/05/01 03:06:59;;;;;;;6.53;5.00;;;13.20;99.90;;;;;;7388861;19;20141;-79
2023/05/01 03:09:25;;;;;;;6.60;5.47;;;12.90;99.90;;;;;;7389121;19;20157;-77
2023/05/01 03:11:51;;;;;;;6.82;5.10;;;13.00;99.90;;;;;;7389090;19;20143;-78
2023/05/01 03:14:16;;;;;;;9.25;4.93;;;13.00;99.90;;;;;;7387540;19;20583;-77
2023/05/01 03:16:43;;;;;;;6.68;5.15;;;12.90;99.90;;;;;;7389020;19;20139;-79
2023/05/01 03:19:09;;;;;;;5.90;4.78;;;12.80;99.90;;;;;;7388228;19;20147;-77
2023/05/01 03:21:35;;;;;;;7.53;5.30;;;13.00;99.90;;;;;;7390784;19;20222;-76
2023/05/01 03:24:02;;;;;;;5.50;4.85;;;13.10;99.90;;;;;;7387613;19;20798;-77
2023/05/01 03:26:28;;;;;;;5.80;4.95;;;13.20;99.90;;;;;;7389149;19;20269;-78
2023/05/01 03:28:54;;;;;;;6.40;5.47;;;13.30;99.90;;;;;;7388357;19;20139;-78
2023/05/01 03:31:22;;;;;;;6.20;5.13;;;13.40;99.90;;;;;;7388852;19;20150;-78
2023/05/01 03:33:47;;;;;;;6.93;4.83;;;13.30;99.90;;;;;;7388659;19;20642;-78
2023/05/01 03:36:13;;;;;;;9.27;5.38;;;13.20;99.90;;;;;;7387935;19;20158;-77
2023/05/01 03:38:39;;;;;;;7.67;5.17;;;13.30;99.90;;;;;;7389129;19;20146;-78
2023/05/01 03:41:05;;;;;;;5.47;4.57;;;13.30;99.90;;;;;;7386164;19;20610;-77
2023/05/01 03:43:31;;;;;;;5.45;4.90;;;13.20;99.90;;;;;;7388596;19;20141;-77
2023/05/01 03:45:57;;;;;;;6.70;5.57;;;13.10;99.90;;;;;;7387470;19;20158;-78
2023/05/01 03:48:25;;;;;;;8.10;5.75;;;13.10;99.90;;;;;;7388832;19;20135;-79
2023/05/01 03:50:51;;;;;;;5.63;5.00;;;13.00;99.90;;;;;;7390541;19;20153;-78
2023/05/01 03:53:17;;;;;;;9.00;5.15;;;13.10;99.90;;;;;;7386857;19;20137;-79
2023/05/01 03:55:43;;;;;;;7.47;4.75;;;13.10;99.90;;;;;;7388871;19;20198;-80
2023/05/01 03:58:09;;;;;;;8.55;6.15;;;13.10;99.90;;;;;;7383526;19;20139;-78
2023/05/01 04:00:36;;;;;;;6.53;4.95;;;13.10;99.90;;;;;;7387435;19;20586;-77
2023/05/01 04:03:03;;;;;;;8.70;5.35;;;13.10;99.90;;;;;;7389700;19;20202;-79
2023/05/01 04:05:29;;;;;;;6.03;4.78;;;13.10;99.90;;;;;;7390038;19;20154;-78
2023/05/01 04:07:56;;;;;;;5.43;4.55;;;13.10;99.90;;;;;;7390807;19;20134;-77
2023/05/01 04:10:22;;;;;;;5.75;5.10;;;13.10;99.90;;;;;;7390536;19;20139;-78
2023/05/01 04:12:48;;;;;;;8.00;5.00;;;13.10;99.90;;;;;;7387336;19;20134;-78
2023/05/01 04:15:14;;;;;;;6.55;4.82;;;13.00;99.90;;;;;;7386539;19;20131;-78
2023/05/01 04:17:42;;;;;;;5.75;4.70;;;13.00;99.90;;;;;;7385005;19;20158;-77
2023/05/01 04:20:09;;;;;;;5.70;5.13;;;13.10;99.90;;;;;;7389133;19;20139;-78
2023/05/01 04:22:36;;;;;;;5.68;4.78;;;13.00;99.90;;;;;;7387285;19;20150;-78
2023/05/01 04:25:03;;;;;;;5.80;4.78;;;13.00;99.90;;;;;;7386784;19;20162;-78
2023/05/01 04:27:29;;;;;;;5.83;4.90;;;13.10;99.90;;;;;;7387818;19;20157;-78
2023/05/01 04:29:56;;;;;;;5.65;5.05;;;13.10;99.90;;;;;;7387583;19;20180;-78
2023/05/01 04:32:22;;;;;;;6.33;4.50;;;13.20;99.90;;;;;;7386348;19;20150;-78
2023/05/01 04:34:48;;;;;;;6.53;4.75;;;12.90;99.90;;;;;;7385609;19;20502;-79
2023/05/01 04:37:16;;;;;;;6.15;4.85;;;13.00;99.90;;;;;;7383855;19;20168;-78
2023/05/01 04:39:43;;;;;;;8.07;4.80;;;13.10;99.90;;;;;;7388133;19;20142;-78
2023/05/01 04:42:08;;;;;;;7.03;4.75;;;13.30;99.90;;;;;;7384425;19;20178;-77
2023/05/01 04:44:36;;;;;;;5.38;4.85;;;13.20;99.90;;;;;;7385163;19;20479;-78
2023/05/01 04:47:02;;;;;;;6.20;4.57;;;13.10;99.90;;;;;;7384896;19;20146;-78
2023/05/01 04:49:28;;;;;;;5.80;4.45;;;13.10;99.90;;;;;;7386191;19;20148;-78
2023/05/01 04:51:54;;;;;;;7.57;5.03;;;13.00;99.90;;;;;;7386261;19;20205;-78
2023/05/01 04:54:20;;;;;;;5.65;4.68;;;13.10;99.90;;;;;;7386327;19;20173;-78
2023/05/01 04:56:45;;;;;;;5.80;4.28;;;13.10;99.90;;;;;;7386339;19;20145;-77
2023/05/01 04:59:12;;;;;;;5.97;4.57;;;13.10;99.90;;;;;;7386788;19;20642;-77
2023/05/01 05:01:38;;;;;;;4.88;4.22;;;13.10;99.90;;;;;;7386467;19;20135;-77
2023/05/01 05:04:04;;;;;;;5.88;4.70;;;13.10;99.90;;;;;;7385193;19;20152;-78
2023/05/01 05:06:30;;;;;;;5.33;4.50;;;13.10;99.90;;;;;;7385491;19;20134;-77
2023/05/01 05:08:56;;;;;;;6.13;4.77;;;13.10;99.90;;;;;;7386063;19;20160;-77
2023/05/01 05:11:22;;;;;;;5.72;4.50;;;13.10;99.90;;;;;;7384538;19;20175;-77
2023/05/01 05:13:48;;;;;;;7.00;4.50;;;13.20;99.90;;;;;;7384946;19;20154;-78
2023/05/01 05:16:14;;;;;;;5.88;4.10;;;13.10;99.90;;;;;;7385137;19;20154;-76
2023/05/01 05:18:39;;;;;;;4.90;4.10;;;13.30;99.90;;;;;;7386708;19;20138;-78
2023/05/01 05:21:06;;;;;;;5.83;4.10;;;13.20;99.90;;;;;;7383946;19;20138;-77
2023/05/01 05:23:32;;;;;;;5.57;4.30;;;13.20;99.90;;;;;;7385861;19;20630;-78
2023/05/01 05:26:00;;;;;;;5.60;4.47;;;13.20;99.90;;;;;;7384919;19;20292;-78
2023/05/01 05:28:27;;;;;;;4.63;4.18;;;13.40;99.90;;;;;;7384685;19;20657;-79
2023/05/01 05:30:54;;;;;;;4.88;4.10;;;13.20;99.90;;;;;;7385574;19;20250;-78
2023/05/01 05:33:20;;;;;;;5.93;3.80;;;13.20;99.90;;;;;;7384354;19;20150;-78
2023/05/01 05:35:45;;;;;;;4.53;3.83;;;13.30;99.90;;;;;;7387223;19;20157;-78
2023/05/01 05:38:12;;;;;;;6.25;4.15;;;13.30;99.90;;;;;;7389637;19;20484;-78
2023/05/01 05:40:38;;;;;;;5.78;4.15;;;13.30;99.90;;;;;;7389863;19;20154;-78
2023/05/01 05:43:04;;;;;;;5.18;3.88;;;13.30;99.90;;;;;;7390405;19;20184;-78
2023/05/01 05:45:33;;;;;;;5.80;3.90;;;13.20;99.90;;;;;;7389802;19;20505;-79
2023/05/01 05:47:59;;;;;;;4.95;4.00;;;13.20;99.90;;;;;;7389969;19;20530;-80
2023/05/01 05:50:25;;;;;;;5.95;4.55;;;13.30;99.90;;;;;;7391959;19;20139;-80
2023/05/01 05:52:51;;;;;;;4.90;4.15;;;13.30;99.90;;;;;;7390135;19;20154;-78
2023/05/01 05:55:16;;;;;;;5.13;4.35;;;13.40;99.90;;;;;;7392931;19;20134;-79
2023/05/01 05:57:42;;;;;;;5.03;4.28;;;13.30;99.90;;;;;;7390317;19;20186;-79
2023/05/01 06:00:09;;;;;;;5.32;4.13;;;13.40;99.90;;;;;;7392495;19;20134;-80
2023/05/01 06:02:35;;;;;;;5.88;4.57;;;13.40;99.90;;;;;;7388945;19;20210;-79
2023/05/01 06:05:02;;;;;;;5.72;4.20;;;13.30;99.90;;;;;;7391177;19;20199;-79
2023/05/01 06:07:28;;;;;;;4.88;4.05;;;13.40;99.90;;;;;;7391210;19;20146;-80
2023/05/01 06:09:54;;;;;;;5.28;4.70;;;13.40;99.90;;;;;;7390383;19;20161;-79
2023/05/01 06:12:20;;;;;;;6.13;4.43;;;13.30;99.90;;;;;;7391101;19;20578;-79
2023/05/01 06:14:46;;;;;;;4.35;3.88;;;13.40;99.90;;;;;;7393345;19;20154;-80
2023/05/01 06:17:13;;;;;;;5.20;4.13;;;13.30;99.90;;;;;;7389298;19;20473;-80
2023/05/01 06:19:38;;;;;;;4.93;4.10;;;13.40;99.90;;;;;;7391914;19;20223;-80
2023/05/01 06:22:05;;;;;;;5.03;4.05;;;13.40;99.90;;;;;;7391173;19;20576;-79
2023/05/01 06:24:31;;;;;;;6.70;4.37;;;13.50;99.90;;;;;;7390572;19;20552;-79
2023/05/01 06:26:57;;;;;;;5.90;4.70;;;13.40;99.90;;;;;;7391525;19;20170;-80
2023/05/01 06:29:23;;;;;;;6.20;3.97;;;13.50;99.90;;;;;;7390791;19;20514;-79
2023/05/01 06:31:48;;;;;;;7.72;4.78;;;13.30;99.90;;;;;;7390366;19;20165;-79
2023/05/01 06:34:14;;;;;;;5.00;4.00;;;13.40;99.90;;;;;;7390404;19;20134;-79
2023/05/01 06:36:41;;;;;;;5.85;4.10;;;13.40;99.90;;;;;;7387845;19;20163;-79
2023/05/01 06:39:07;;;;;;;6.60;4.57;;;13.40;99.90;;;;;;7391465;19;20142;-79
2023/05/01 06:41:34;;;;;;;6.25;4.53;;;13.50;99.90;;;;;;7390860;19;20158;-79
2023/05/01 06:44:00;;;;;;;5.25;4.03;;;13.50;99.90;;;;;;7389985;19;20150;-80
2023/05/01 06:46:26;;;;;;;6.03;4.28;;;13.40;99.90;;;;;;7390656;19;20833;-78
2023/05/01 06:48:52;;;;;;;6.25;4.50;;;13.60;99.90;;;;;;7391229;19;20174;-79
2023/05/01 06:51:18;;;;;;;5.85;4.20;;;13.50;99.90;;;;;;7388069;19;20135;-79
2023/05/01 06:53:44;;;;;;;5.78;4.38;;;13.60;99.90;;;;;;7389340;19;20141;-78
2023/05/01 06:56:10;;;;;;;6.43;4.50;;;13.60;99.90;;;;;;7389441;19;20243;-78
2023/05/01 06:58:35;;;;;;;5.80;4.38;;;13.50;99.90;;;;;;7390163;19;20458;-78
2023/05/01 07:01:04;;;;;;;6.32;5.32;;;13.60;99.90;;;;;;7387457;19;20133;-78
2023/05/01 07:03:29;;;;;;;5.25;4.40;;;13.50;99.90;;;;;;7387464;19;20143;-78
2023/05/01 07:05:55;;;;;;;4.97;4.47;;;13.50;99.90;;;;;;7387961;19;20146;-77
2023/05/01 07:08:23;;;;;;;5.25;3.97;;;13.60;99.90;;;;;;7388350;19;20162;-78
2023/05/01 07:10:48;;;;;;;6.95;4.88;;;13.60;99.90;;;;;;7386597;19;20464;-77
2023/05/01 07:13:15;;;;;;;5.67;4.47;;;13.60;99.90;;;;;;7388189;19;20198;-78
2023/05/01 07:15:41;;;;;;;6.00;5.00;;;13.60;99.90;;;;;;7390070;19;20141;-78
2023/05/01 07:18:07;;;;;;;6.05;5.05;;;13.70;99.90;;;;;;7386740;19;20146;-77
2023/05/01 07:20:36;;;;;;;6.93;5.05;;;13.60;99.90;;;;;;7388804;19;20459;-77
2023/05/01 07:23:02;;;;;;;6.03;5.43;;;13.60;99.90;;;;;;7387585;19;20149;-78
2023/05/01 07:25:28;;;;;;;5.90;5.30;;;13.60;99.90;;;;;;7387132;19;20162;-75
2023/05/01 07:27:54;;;;;;;8.23;5.07;;;13.50;99.90;;;;;;7385894;19;20575;-75
2023/05/01 07:30:20;;;;;;;8.60;5.28;;;13.50;99.90;;;;;;7386713;19;20162;-79
2023/05/01 07:32:46;;;;;;;5.55;4.97;;;13.70;99.90;;;;;;7384097;19;20150;-76
2023/05/01 07:35:12;;;;;;;5.93;4.70;;;13.80;99.90;;;;;;7385896;19;20168;-77
2023/05/01 07:37:38;;;;;;;5.65;4.75;;;13.60;99.90;;;;;;7381168;19;20135;-76
2023/05/01 07:40:04;;;;;;;6.93;4.90;;;13.50;99.90;;;;;;7386453;19;20896;-75
2023/05/01 07:42:30;;;;;;;5.05;4.55;;;13.80;99.90;;;;;;7383565;19;20223;-75
2023/05/01 07:44:55;;;;;;;5.05;4.55;;;13.80;99.90;;;;;;7388680;19;20162;-77
2023/05/01 07:47:21;;;;;;;5.65;4.78;;;13.80;99.90;;;;;;7388454;19;20464;-76
2023/05/01 07:49:48;;;;;;;5.70;4.10;;;13.90;99.90;;;;;;7385173;19;20134;-78
2023/05/01 07:52:14;;;;;;;6.00;4.65;;;13.70;99.90;;;;;;7388630;19;20178;-77
2023/05/01 07:54:40;;;;;;;5.88;4.35;;;14.10;99.90;;;;;;7384005;19;20508;-77
2023/05/01 07:57:06;;;;;;;8.52;4.93;;;14.20;99.90;;;;;;7379268;19;20163;-78
2023/05/01 07:59:32;;;;;;;5.50;4.57;;;14.40;99.90;;;;;;7376129;19;20161;-77
2023/05/01 08:01:58;;;;;;;5.53;4.43;;;14.10;99.90;;;;;;7385825;19;20238;-77
2023/05/01 08:04:27;;;;;;;9.93;4.70;;;14.10;99.90;;;;;;7386069;19;20266;-77
2023/05/01 08:06:53;;;;;;;5.75;4.63;;;14.30;99.90;;;;;;7385973;19;20208;-76
2023/05/01 08:09:19;;;;;;;5.40;4.05;;;14.40;99.90;;;;;;7388005;19;20154;-76
2023/05/01 08:11:45;;;;;;;5.45;4.63;;;14.30;99.90;;;;;;7388925;19;20687;-76
2023/05/01 08:14:14;;;;;;;5.03;4.32;;;14.50;99.90;;;;;;7389243;19;20134;-76
2023/05/01 08:16:40;;;;;;;4.93;4.40;;;14.40;99.90;;;;;;7388147;19;20151;-76
2023/05/01 08:19:06;;;;;;;6.75;4.72;;;14.40;99.90;;;;;;7387821;19;20142;-76
2023/05/01 08:21:34;;;;;;;4.75;4.22;;;14.40;99.90;;;;;;7387281;19;20150;-76
2023/05/01 08:24:00;;;;;;;4.72;4.00;;;14.60;99.90;;;;;;7386526;19;20134;-76
2023/05/01 08:26:26;;;;;;;6.15;5.20;;;14.50;99.90;;;;;;7382992;19;20161;-76
2023/05/01 08:28:51;;;;;;;5.00;4.32;;;14.50;99.90;;;;;;7383939;19;20145;-75
2023/05/01 08:31:18;;;;;;;6.03;4.60;;;14.60;99.90;;;;;;7387566;19;20592;-76
2023/05/01 08:33:44;;;;;;;8.52;4.20;;;14.60;99.90;;;;;;7387784;19;20135;-77
2023/05/01 08:36:11;;;;;;;4.95;4.30;;;14.60;99.90;;;;;;7384548;19;20273;-76
2023/05/01 08:38:37;;;;;;;5.18;4.35;;;14.80;99.90;;;;;;7384779;19;20520;-77
2023/05/01 08:41:03;;;;;;;4.50;4.10;;;14.80;99.90;;;;;;7387069;19;20567;-75
2023/05/01 08:43:32;;;;;;;5.32;4.20;;;14.90;99.90;;;;;;7386314;19;20556;-76
2023/05/01 08:46:02;;;;;;;4.90;4.10;;;14.70;99.90;;;;;;7384717;19;20130;-76
2023/05/01 08:48:31;;;;;;;5.93;3.70;;;14.80;99.90;;;;;;7384107;19;20146;-76
2023/05/01 08:50:59;;;;;;;4.88;4.38;;;15.10;99.90;;;;;;7387352;19;20123;-76
2023/05/01 08:53:25;;;;;;;5.68;4.00;;;15.30;99.90;;;;;;7382819;19;20127;-77
2023/05/01 08:55:55;;;;;;;4.78;4.00;;;15.50;99.90;;;;;;7384643;19;20211;-77
2023/05/01 08:58:24;;;;;;;4.45;3.65;;;15.50;99.90;;;;;;7387547;19;20150;-78
2023/05/01 09:00:51;;;;;;;4.25;3.50;;;15.60;99.90;;;;;;7387930;19;20150;-78
2023/05/01 09:03:19;;;;;;;5.82;3.80;;;15.80;99.90;;;;;;7386439;19;20143;-79
2023/05/01 09:05:45;;;;;;;5.03;4.00;;;15.90;99.90;;;;;;7385938;19;20155;-77
2023/05/01 09:08:11;;;;;;;4.95;3.63;;;16.00;99.90;;;;;;7385878;19;20145;-77
2023/05/01 09:10:44;;;;;;;4.63;3.97;;;16.20;99.90;;;;;;7384533;19;20757;-77
2023/05/01 09:13:11;;;;;;;4.45;3.88;;;16.10;99.90;;;;;;7386587;19;20254;-77
2023/05/01 09:15:37;;;;;;;5.32;4.03;;;16.20;99.90;;;;;;7387526;19;20176;-76
2023/05/01 09:18:03;;;;;;;5.55;4.57;;;16.30;99.90;;;;;;7383570;19;20174;-78
2023/05/01 09:20:31;;;;;;;4.97;4.18;;;16.30;99.90;;;;;;7386648;19;20610;-77
2023/05/01 09:22:57;;;;;;;5.07;4.47;;;16.40;99.90;;;;;;7387662;19;20138;-78
2023/05/01 09:25:23;;;;;;;4.93;4.10;;;16.40;99.90;;;;;;7386653;19;20127;-77
2023/05/01 09:27:50;;;;;;;5.38;3.80;;;16.30;99.90;;;;;;7388602;19;20135;-78
2023/05/01 09:30:33;;;;;;;4.47;3.92;;;16.30;99.90;;;;;;7388620;19;20158;-78
2023/05/01 09:33:14;;;;;;;6.13;5.28;;;16.30;99.90;;;;;;7385767;19;20146;-79
2023/05/01 09:35:53;;;;;;;6.63;4.72;;;16.20;99.90;;;;;;7385877;19;20161;-77
2023/05/01 09:38:26;;;;;;;5.35;4.55;;;16.30;99.90;;;;;;7380686;19;20143;-78
2023/05/01 09:40:55;;;;;;;5.40;4.50;;;16.40;99.90;;;;;;7382294;19;20201;-77
2023/05/01 09:43:28;;;;;;;7.30;5.25;;;16.20;99.90;;;;;;7385797;19;20525;-78
2023/05/01 09:46:10;;;;;;;5.10;4.45;;;16.60;99.90;;;;;;7384009;19;20809;-78
2023/05/01 09:48:37;;;;;;;4.82;4.32;;;16.70;99.90;;;;;;7386415;19;20169;-78
2023/05/01 09:51:20;;;;;;;5.97;5.00;;;16.90;99.90;;;;;;7383387;19;20660;-78
2023/05/01 09:53:46;;;;;;;6.65;4.47;;;17.00;99.90;;;;;;7384963;19;20181;-78
2023/05/01 09:56:13;;;;;;;5.95;4.05;;;17.00;99.90;;;;;;7383211;19;20438;-77
2023/05/01 09:58:39;;;;;;;10.23;6.35;;;16.80;99.90;;;;;;7385057;19;20161;-79
2023/05/01 10:01:05;;;;;;;5.68;4.68;;;17.00;99.90;;;;;;7383469;19;20127;-79
2023/05/01 10:03:33;;;;;;;6.60;4.80;;;16.80;99.90;;;;;;7387181;19;20162;-78
2023/05/01 10:06:01;;;;;;;6.90;4.65;;;16.80;99.90;;;;;;7383807;19;20218;-78
2023/05/01 10:08:47;;;;;;;6.82;4.70;;;16.80;99.90;;;;;;7385293;19;20130;-78
2023/05/01 10:11:13;;;;;;;5.65;4.57;;;16.80;99.90;;;;;;7382466;19;20612;-79
2023/05/01 10:13:39;;;;;;;5.72;4.65;;;16.70;99.90;;;;;;7382991;19;20159;-79
2023/05/01 10:16:07;;;;;;;5.47;4.70;;;16.70;99.90;;;;;;7384691;19;20199;-77
2023/05/01 10:18:34;;;;;;;7.07;4.97;;;16.60;99.90;;;;;;7383645;19;20625;-80
2023/05/01 10:21:00;;;;;;;9.05;4.40;;;16.50;99.90;;;;;;7385041;19;20164;-78
2023/05/01 10:23:26;;;;;;;5.13;4.03;;;16.60;99.90;;;;;;7389664;19;20138;-77
2023/05/01 10:25:52;;;;;;;5.72;4.68;;;16.40;99.90;;;;;;7391883;19;20615;-79
2023/05/01 10:28:20;;;;;;;5.80;4.45;;;16.60;99.90;;;;;;7391587;19;20130;-77
2023/05/01 10:30:47;;;;;;;5.45;4.50;;;16.60;99.90;;;;;;7391154;19;20795;-78
2023/05/01 10:33:13;;;;;;;6.40;4.68;;;16.70;99.90;;;;;;7389792;19;20209;-78
2023/05/01 10:35:43;;;;;;;4.75;4.20;;;16.80;99.90;;;;;;7391385;19;20721;-77
2023/05/01 10:38:12;;;;;;;5.40;4.38;;;16.90;99.90;;;;;;7387954;19;20146;-78
2023/05/01 10:40:38;;;;;;;6.30;4.68;;;16.90;99.90;;;;;;7388493;19;20150;-77
2023/05/01 10:43:19;;;;;;;4.95;4.35;;;16.50;99.90;;;;;;7389845;19;20134;-78
2023/05/01 10:45:48;;;;;;;5.38;4.32;;;16.70;99.90;;;;;;7388372;19;20152;-79
2023/05/01 10:48:36;;;;;;;5.90;4.57;;;16.80;99.90;;;;;;7388923;19;20541;-80
2023/05/01 10:51:13;;;;;;;5.40;4.55;;;17.00;99.90;;;;;;7388728;19;20129;-80
2023/05/01 10:53:40;;;;;;;8.23;4.63;;;17.00;99.90;;;;;;7389049;19;20154;-77
2023/05/01 10:56:25;;;;;;;5.25;4.50;;;17.00;99.90;;;;;;7387130;19;20145;-77
2023/05/01 10:58:56;;;;;;;5.32;4.82;;;17.10;99.90;;;;;;7390580;19;20151;-77
2023/05/01 11:01:35;;;;;;;7.80;4.57;;;17.20;99.90;;;;;;7387442;19;20135;-78
2023/05/01 11:04:03;;;;;;;6.22;4.90;;;17.20;99.90;;;;;;7386890;19;20502;-78
2023/05/01 11:06:30;;;;;;;5.28;4.68;;;17.20;99.90;;;;;;7388181;19;20150;-78
2023/05/01 11:08:56;;;;;;;5.40;4.80;;;17.20;99.90;;;;;;7391547;19;20131;-79
2023/05/01 11:11:25;;;;;;;5.22;4.63;;;17.30;99.90;;;;;;7388359;19;20210;-77
2023/05/01 11:14:01;;;;;;;6.15;5.28;;;17.30;99.90;;;;;;7388674;19;20556;-77
2023/05/01 11:16:36;;;;;;;5.70;4.45;;;17.20;99.90;;;;;;7389160;19;20525;-77
2023/05/01 11:19:09;;;;;;;6.18;4.72;;;17.20;99.90;;;;;;7389423;19;20512;-78
2023/05/01 11:21:40;;;;;;;6.57;4.47;;;17.00;99.90;;;;;;7387118;19;20134;-78
2023/05/01 11:24:07;;;;;;;5.88;4.30;;;17.10;99.90;;;;;;7387029;19;20142;-78
2023/05/01 11:26:41;;;;;;;5.50;4.45;;;17.10;99.90;;;;;;7387870;19;20575;-78
2023/05/01 11:29:09;;;;;;;5.63;4.22;;;17.20;99.90;;;;;;7387382;19;20134;-79
2023/05/01 11:31:35;;;;;;;8.70;4.47;;;17.30;99.90;;;;;;7388422;19;20138;-78
2023/05/01 11:34:02;;;;;;;8.75;4.65;;;17.40;99.90;;;;;;7384521;19;20150;-80
2023/05/01 11:36:29;;;;;;;5.55;4.35;;;17.30;99.90;;;;;;7386616;19;20161;-79
2023/05/01 11:38:58;;;;;;;9.27;4.22;;;17.10;99.90;;;;;;7388787;19;20241;-78
2023/05/01 11:41:27;;;;;;;5.75;4.47;;;17.20;99.90;;;;;;7386765;19;20151;-77
2023/05/01 11:43:55;;;;;;;5.85;4.07;;;17.30;99.90;;;;;;7389974;19;20240;-78
2023/05/01 11:46:29;;;;;;;6.97;4.30;;;17.40;99.90;;;;;;7387559;19;20468;-77
2023/05/01 11:49:04;;;;;;;6.00;4.68;;;17.40;99.90;;;;;;7388901;19;20129;-80
2023/05/01 11:51:31;;;;;;;5.63;4.22;;;17.40;99.90;;;;;;7387660;19;20145;-78
2023/05/01 11:54:12;;;;;;;4.68;4.05;;;17.30;99.90;;;;;;7387225;19;20149;-78
2023/05/01 11:56:42;;;;;;;6.40;4.13;;;17.40;99.90;;;;;;7385118;19;20138;-80
2023/05/01 11:59:15;;;;;;;4.50;4.00;;;17.40;99.90;;;;;;7386697;19;20154;-79
2023/05/01 12:01:43;;;;;;;4.35;3.95;;;17.50;99.90;;;;;;7390046;19;20198;-78
2023/05/01 12:04:10;;;;;;;5.72;3.95;;;17.60;99.90;;;;;;7385962;19;20139;-79
2023/05/01 12:06:43;;;;;;;4.70;4.05;;;17.50;99.90;;;;;;7388982;19;20138;-80
2023/05/01 12:09:14;;;;;;;4.97;4.40;;;17.50;99.90;;;;;;7387587;19;20139;-79
2023/05/01 12:11:41;;;;;;;6.65;4.70;;;17.60;99.90;;;;;;7387537;19;20143;-78
2023/05/01 12:14:08;;;;;;;5.07;4.53;;;17.60;99.90;;;;;;7387114;19;20294;-78
2023/05/01 12:16:35;;;;;;;6.45;3.88;;;17.50;99.90;;;;;;7384716;19;20170;-78
2023/05/01 12:19:03;;;;;;;4.95;4.10;;;17.60;99.90;;;;;;7388340;19;20305;-77
2023/05/01 12:21:28;;;;;;;7.15;4.50;;;17.80;99.90;;;;;;7387103;19;20185;-78
2023/05/01 12:23:55;;;;;;;5.85;3.83;;;17.70;99.90;;;;;;7390157;19;20136;-78
2023/05/01 12:26:22;;;;;;;4.30;3.78;;;17.60;99.90;;;;;;7385852;19;20615;-77
2023/05/01 12:28:59;;;;;;;6.00;3.83;;;17.50;99.90;;;;;;7387882;19;20145;-78
2023/05/01 12:31:26;;;;;;;6.63;4.22;;;17.50;99.90;;;;;;7386986;19;20583;-79
2023/05/01 12:33:54;;;;;;;4.72;3.92;;;17.60;99.90;;;;;;7387659;19;20606;-78
2023/05/01 12:36:24;;;;;;;5.18;4.20;;;17.60;99.90;;;;;;7387666;19;20142;-79
2023/05/01 12:39:11;;;;;;;5.30;3.92;;;17.60;99.90;;;;;;7386901;19;20155;-79
2023/05/01 12:41:45;;;;;;;4.63;3.60;;;17.60;99.90;;;;;;7384702;19;20181;-79
2023/05/01 12:44:19;;;;;;;4.32;3.80;;;17.80;99.90;;;;;;7387245;19;20212;-78
2023/05/01 12:46:58;;;;;;;5.18;4.10;;;18.00;99.90;;;;;;7386246;19;20138;-78
2023/05/01 12:49:25;;;;;;;5.03;4.22;;;18.00;99.90;;;;;;7385274;19;20134;-80
2023/05/01 12:51:53;;;;;;;5.55;3.67;;;18.00;99.90;;;;;;7384836;19;20217;-79
2023/05/01 12:54:36;;;;;;;4.55;3.90;;;18.20;99.90;;;;;;7385879;19;20170;-80